August 14, 2022

Time Code Weather Temp. Visibility Ceiling Wind METAR/SPECI
07:50
V
20 °C 10 km+ - 080° 080° 3 kt METAR EGKK 140650Z 08003KT 020V100 CAVOK 20/11 Q1008
07:20
V
19 °C 10 km+ - 080° 080° 3 kt METAR EGKK 140620Z 08003KT CAVOK 19/11 Q1008
06:50
V
18 °C 10 km+ - 100° 100° 2 kt METAR EGKK 140550Z 10002KT CAVOK 18/11 Q1008
06:20
V
16 °C 10 km+ - Var Var 1 kt METAR EGKK 140520Z VRB01KT CAVOK 16/10 Q1008
05:50
V
16 °C 10 km+ - Var Var 2 kt METAR EGKK 140450Z VRB02KT CAVOK 16/09 Q1008
05:20
V
16 °C 10 km+ - 030° 030° 3 kt METAR EGKK 140420Z 03003KT CAVOK 16/09 Q1009
04:50
V
17 °C 10 km+ - 080° 080° 3 kt METAR EGKK 140350Z 08003KT CAVOK 17/09 Q1009
04:20
V
17 °C 10 km+ - 070° 070° 2 kt METAR EGKK 140320Z 07002KT CAVOK 17/09 Q1009
03:50
V
17 °C 10 km+ - 080° 080° 2 kt METAR EGKK 140250Z 08002KT CAVOK 17/09 Q1009
03:20
V
18 °C 10 km+ - 090° 090° 3 kt METAR EGKK 140220Z 09003KT CAVOK 18/08 Q1009
02:50
V
18 °C 10 km+ - Var Var 2 kt METAR EGKK 140150Z VRB02KT CAVOK 18/09 Q1010
02:20
V
18 °C 10 km+ - Var Var 1 kt METAR EGKK 140120Z VRB01KT CAVOK 18/09 Q1010
01:50
V
19 °C 10 km+ - 080° 080° 1 kt METAR EGKK 140050Z 08001KT CAVOK 19/09 Q1010
01:20
V
19 °C 10 km+ - 090° 090° 2 kt METAR EGKK 140020Z 09002KT CAVOK 19/08 Q1011
00:50
V
19 °C 10 km+ - 070° 070° 5 kt METAR EGKK 132350Z 07005KT CAVOK 19/08 Q1011
00:20
V
20 °C 10 km+ - 090° 090° 1 kt METAR EGKK 132320Z 09001KT CAVOK 20/09 Q1011

August 13, 2022

Time Code Weather Temp. Visibility Ceiling Wind METAR/SPECI
23:50
V
21 °C 10 km+ - 100° 100° 3 kt METAR EGKK 132250Z 10003KT CAVOK 21/09 Q1011
23:20
V
20 °C 10 km+ - 090° 090° 4 kt METAR EGKK 132220Z 09004KT CAVOK 20/09 Q1011
22:50
V
20 °C 10 km+ - 080° 080° 5 kt METAR EGKK 132150Z 08005KT CAVOK 20/09 Q1011
22:20
V
22 °C 10 km+ - 070° 070° 5 kt METAR EGKK 132120Z 07005KT CAVOK 22/09 Q1012
21:50
V
23 °C 10 km+ - 090° 090° 3 kt METAR EGKK 132050Z 09003KT CAVOK 23/09 Q1012
21:20
V
25 °C 10 km+ - 140° 140° 3 kt METAR EGKK 132020Z 14003KT CAVOK 25/08 Q1012
20:50
V
26 °C 10 km+ - 130° 130° 4 kt METAR EGKK 131950Z 13004KT CAVOK 26/07 Q1012
20:20
V
28 °C 10 km+ - 120° 120° 3 kt METAR EGKK 131920Z 12003KT CAVOK 28/07 Q1011
19:50
V
29 °C 10 km+ - 140° 140° 4 kt METAR EGKK 131850Z 14004KT 110V170 CAVOK 29/06 Q1012
19:20
V
30 °C 10 km+ - 150° 150° 5 kt METAR EGKK 131820Z 15005KT 110V200 CAVOK 30/06 Q1012
18:50
V
31 °C 10 km+ - 140° 140° 7 kt METAR EGKK 131750Z 14007KT 120V180 CAVOK 31/06 Q1012
18:20
V
31 °C 10 km+ - 130° 130° 8 kt METAR EGKK 131720Z 13008KT 090V170 CAVOK 31/06 Q1012
17:50
V
31 °C 10 km+ - 130° 130° 8 kt METAR EGKK 131650Z 13008KT CAVOK 31/05 Q1012
17:20
V
32 °C 10 km+ - 130° 130° 8 kt METAR EGKK 131620Z 13008KT 100V180 CAVOK 32/06 Q1012
16:50
V
32 °C 10 km+ - 140° 140° 8 kt METAR EGKK 131550Z 14008KT 110V190 CAVOK 32/06 Q1012
16:20
V
32 °C 10 km+ - 170° 170° 8 kt METAR EGKK 131520Z 17008KT 140V220 CAVOK 32/06 Q1012
15:50
V
32 °C 10 km+ - 140° 140° 8 kt METAR EGKK 131450Z 14008KT 090V190 CAVOK 32/07 Q1013
15:20
V
32 °C 10 km+ - 120° 120° 10 kt METAR EGKK 131420Z 12010KT 070V170 CAVOK 32/07 Q1013
14:50
V
32 °C 10 km+ - 150° 150° 5 kt METAR EGKK 131350Z 15005KT 090V210 CAVOK 32/07 Q1013
14:20
V
32 °C 10 km+ - 130° 130° 9 kt METAR EGKK 131320Z 13009KT 090V180 CAVOK 32/07 Q1013
13:50
V
32 °C 10 km+ - 110° 110° 8 kt METAR EGKK 131250Z 11008KT 060V140 CAVOK 32/11 Q1013
13:20
V
31 °C 10 km+ - 100° 100° 5 kt METAR EGKK 131220Z 10005KT 360V140 CAVOK 31/14 Q1014
12:50
V
30 °C 10 km+ - Var Var 5 kt METAR EGKK 131150Z VRB05KT CAVOK 30/14 Q1014
12:20
V
30 °C 10 km+ - 060° 060° 6 kt METAR EGKK 131120Z 06006KT 010V110 CAVOK 30/14 Q1014
11:50
V
29 °C 10 km+ - 110° 110° 4 kt METAR EGKK 131050Z 11004KT 010V150 CAVOK 29/14 Q1014
11:20
V
28 °C 10 km+ - 070° 070° 7 kt METAR EGKK 131020Z 07007KT 030V130 CAVOK 28/13 Q1014
10:50
V
28 °C 10 km+ - 020° 020° 5 - 16 kt METAR EGKK 130950Z 02005G16KT CAVOK 28/14 Q1015
10:20
V
27 °C 10 km+ - Var Var 4 kt METAR EGKK 130920Z VRB04KT CAVOK 27/15 Q1015
09:50
V
26 °C 10 km+ - 060° 060° 4 kt METAR EGKK 130850Z 06004KT 340V120 CAVOK 26/15 Q1015
09:20
V
25 °C 10 km+ - 040° 040° 5 kt METAR EGKK 130820Z 04005KT CAVOK 25/15 Q1014
08:50
V
23 °C 10 km+ - 060° 060° 4 kt METAR EGKK 130750Z 06004KT 350V090 CAVOK 23/16 Q1014
08:20
V
21 °C 10 km+ - 010° 010° 4 kt METAR EGKK 130720Z 01004KT 340V070 CAVOK 21/15 Q1014
07:50
V
20 °C 10 km+ - 030° 030° 4 kt METAR EGKK 130650Z 03004KT 350V070 CAVOK 20/15 Q1014
07:20
V
19 °C 10 km+ - 020° 020° 4 kt METAR EGKK 130620Z 02004KT 330V100 CAVOK 19/15 Q1015
06:50
V
18 °C 10 km+ - 020° 020° 5 kt METAR EGKK 130550Z 02005KT 340V120 CAVOK 18/15 Q1015
06:20
V
17 °C 10 km+ - 040° 040° 3 kt METAR EGKK 130520Z 04003KT 340V130 CAVOK 17/15 Q1015
05:50
V
16 °C 10 km+ - 030° 030° 3 kt METAR EGKK 130450Z 03003KT CAVOK 16/14 Q1015
05:20
V
17 °C 10 km+ - 030° 030° 3 kt METAR EGKK 130420Z 03003KT CAVOK 17/15 Q1015
04:50
V
16 °C 10 km+ - Var Var 2 kt METAR EGKK 130350Z VRB02KT CAVOK 16/14 Q1015
04:20
V
16 °C 10 km+ - 040° 040° 3 kt METAR EGKK 130320Z 04003KT CAVOK 16/14 Q1015
03:50
V
17 °C 10 km+ - 040° 040° 3 kt METAR EGKK 130250Z 04003KT CAVOK 17/14 Q1015
03:20
V
17 °C 10 km+ - 060° 060° 3 kt METAR EGKK 130220Z 06003KT CAVOK 17/14 Q1015
02:50
V
17 °C 10 km+ - 060° 060° 3 kt METAR EGKK 130150Z 06003KT CAVOK 17/14 Q1015
02:20
V
18 °C 10 km+ - Var Var 1 kt METAR EGKK 130120Z VRB01KT CAVOK 18/14 Q1015
01:50
V
18 °C 10 km+ - Var Var 2 kt METAR EGKK 130050Z VRB02KT CAVOK 18/14 Q1016
01:20
V
18 °C 10 km+ - Var Var 1 kt METAR EGKK 130020Z VRB01KT CAVOK 18/13 Q1016
00:50
V
19 °C 10 km+ - 080° 080° 2 kt METAR EGKK 122350Z 08002KT CAVOK 19/13 Q1016
00:20
V
19 °C 10 km+ - 080° 080° 3 kt METAR EGKK 122320Z 08003KT CAVOK 19/12 Q1016

August 12, 2022

Time Code Weather Temp. Visibility Ceiling Wind METAR/SPECI
23:50
V
19 °C 10 km+ - 070° 070° 4 kt METAR EGKK 122250Z 07004KT CAVOK 19/12 Q1016
23:20
V
19 °C 10 km+ - 070° 070° 4 kt METAR EGKK 122220Z 07004KT CAVOK 19/11 Q1016
22:50
V
20 °C 10 km+ - 070° 070° 4 kt METAR EGKK 122150Z 07004KT CAVOK 20/11 Q1016
22:20
V
21 °C 10 km+ - 060° 060° 5 kt METAR EGKK 122120Z 06005KT CAVOK 21/10 Q1016
21:50
V
21 °C 10 km+ - 070° 070° 5 kt METAR EGKK 122050Z 07005KT CAVOK 21/10 Q1016
21:20
V
22 °C 10 km+ - 070° 070° 6 kt METAR EGKK 122020Z 07006KT CAVOK 22/09 Q1016
20:50
V
24 °C 10 km+ - 050° 050° 8 kt METAR EGKK 121950Z 05008KT CAVOK 24/09 Q1016
20:20
V
26 °C 10 km+ - 050° 050° 8 kt METAR EGKK 121920Z 05008KT CAVOK 26/09 Q1016
19:50
V
27 °C 10 km+ - 050° 050° 9 kt METAR EGKK 121850Z 05009KT CAVOK 27/09 Q1016
19:20
V
28 °C 10 km+ - 060° 060° 9 kt METAR EGKK 121820Z 06009KT CAVOK 28/09 Q1016
18:50
V
29 °C 10 km+ - 060° 060° 11 kt METAR EGKK 121750Z 06011KT CAVOK 29/09 Q1016
18:20
V
30 °C 10 km+ - 070° 070° 10 kt METAR EGKK 121720Z 07010KT CAVOK 30/08 Q1016
17:50
V
30 °C 10 km+ - 070° 070° 11 kt METAR EGKK 121650Z 07011KT CAVOK 30/07 Q1016
17:20
V
31 °C 10 km+ - 060° 060° 12 kt METAR EGKK 121620Z 06012KT CAVOK 31/08 Q1016
16:50
V
31 °C 10 km+ - 050° 050° 11 kt METAR EGKK 121550Z 05011KT CAVOK 31/08 Q1016
16:20
V
32 °C 10 km+ - 050° 050° 11 kt METAR EGKK 121520Z 05011KT 010V080 CAVOK 32/09 Q1016
15:50
V
32 °C 10 km+ - 070° 070° 11 kt METAR EGKK 121450Z 07011KT 040V110 CAVOK 32/10 Q1016
15:20
V
32 °C 10 km+ - 070° 070° 12 kt METAR EGKK 121420Z 07012KT 040V100 CAVOK 32/11 Q1016
14:50
V
32 °C 10 km+ - 040° 040° 12 kt METAR EGKK 121350Z 04012KT 360V070 CAVOK 32/11 Q1016
14:20
V
32 °C 10 km+ - 050° 050° 8 kt METAR EGKK 121320Z 05008KT 300V120 CAVOK 32/10 Q1017
13:50
V
32 °C 10 km+ - 040° 040° 11 kt METAR EGKK 121250Z 04011KT CAVOK 32/11 Q1017
13:20
V
32 °C 10 km+ - 070° 070° 9 kt METAR EGKK 121220Z 07009KT 020V130 CAVOK 32/11 Q1017
12:50
V
32 °C 10 km+ - 060° 060° 10 kt METAR EGKK 121150Z 06010KT CAVOK 32/11 Q1017
12:20
V
31 °C 10 km+ - 060° 060° 10 kt METAR EGKK 121120Z 06010KT 030V110 CAVOK 31/11 Q1017
11:50
V
31 °C 10 km+ - 070° 070° 12 kt METAR EGKK 121050Z 07012KT CAVOK 31/10 Q1018
11:20
V
30 °C 10 km+ - 090° 090° 10 kt METAR EGKK 121020Z 09010KT 050V130 CAVOK 30/11 Q1018
10:50
V
29 °C 10 km+ - 070° 070° 8 kt METAR EGKK 120950Z 07008KT 040V110 CAVOK 29/13 Q1018
10:20
V
28 °C 10 km+ - 070° 070° 6 kt METAR EGKK 120920Z 07006KT 040V100 CAVOK 28/14 Q1018
09:50
V
26 °C 10 km+ - 050° 050° 5 kt METAR EGKK 120850Z 05005KT 030V110 CAVOK 26/14 Q1018
09:20
V
24 °C 10 km+ - 070° 070° 8 kt METAR EGKK 120820Z 07008KT CAVOK 24/14 Q1018
08:50
V
23 °C 10 km+ - 060° 060° 6 kt METAR EGKK 120750Z 06006KT CAVOK 23/15 Q1019
08:20
V
21 °C 10 km+ - 070° 070° 6 kt METAR EGKK 120720Z 07006KT CAVOK 21/15 Q1019
07:50
V
19 °C 10 km+ - 070° 070° 4 kt METAR EGKK 120650Z 07004KT 040V100 CAVOK 19/15 Q1019
07:20
V
18 °C 10 km+ - 090° 090° 4 kt METAR EGKK 120620Z 09004KT CAVOK 18/14 Q1019
06:50
V
17 °C 10 km+ - 070° 070° 4 kt METAR EGKK 120550Z 07004KT 360V110 CAVOK 17/14 Q1019
06:20
V
15 °C 10 km+ - Var Var 2 kt METAR EGKK 120520Z VRB02KT CAVOK 15/13 Q1019
Older data

We and third parties follow your internet behavior on our website with cookies. If you continue, we assume you agree with our cookie policy. Learn more